Terminal Aerodrome Forecast
Issued by NWS

Home | Current Version | Previous Version | Text Only | Print | Product List | Glossary On
Versions: 1 2 3 4 5 6 7 8 9 10 11 12 13 14 15 16 17 18 19 20 21 22 23 24 25
842
FTUS41 KBUF 241502 AAA
TAFJHW
TAF AMD
KJHW 241502Z 2415/2512 23006KT P6SM OVC150
     FM241800 24008KT P6SM OVC150
     FM242300 VRB05KT P6SM VCSH BKN080
     FM251000 22008KT P6SM VCSH BKN040
      AMD LTD TO CLD VIS AND WIND=

USA.gov is the U.S. government's official web portal to all federal, state and local government web resources and services.